Aérodrome :
LOGIN :

S'inscrire | Disclaimer

   EN    FR    IT 

 










Légende :    VFR   VFR Marginal   IFR   IFR Intensif   IFR Très Intensif
Visi : 
Plafond : 
>= 8 km
>= 3000ft
5 à 8 km
1000 à 3000 ft
1500m à 5 km
500 à 1000 ft
800 à 1500m
200 à 500 ft
< 800m
< 200 ft
Symboles :   Orages  Brouillard  Fortes neiges  Fortes précipitations  Vent > 20 kt
SIGMETs :   Divers  Orages  Givrage  Turbulence  Onde Orograph.  Cendres Volcan.






- Altitude de l'aérodrome : 158 ft
- Code IATA : QAR


EHDL - Deelen Airbase

DERNIER METAR :
  • 280555Z AUTO 16003KT 110V220 1400 BR OVC000 01/01 Q1020 RED

METARs EXPIRÉS :
  • 280525Z AUTO 17003KT 110V200 2100 BR BKN000 OVC036 00/00 Q1020 RED
  • 280455Z AUTO 13003KT 110V170 1700 BR OVC000 00/00 Q1020 RED
  • 280425Z AUTO VRB02KT 0400 FG OVC000 00/00 Q1019 RED
  • 280355Z AUTO 15003KT 0300 FG OVC000 00/00 Q1019 RED
  • 280325Z AUTO VRB02KT 0400 FG VV000 01/01 Q1019 RED
  • 280255Z AUTO VRB02KT 0350 FG VV000 01/01 Q1019 RED
  • 280225Z AUTO 22004KT 170V260 0300 FG VV000 01/01 Q1019 RED
  • 280155Z AUTO 21004KT 140V240 0450 FG VV000 02/02 Q1019 RED
  • 280125Z AUTO 21003KT 170V250 1300 BR OVC000 02/02 Q1019 RED

Prévision TAF périmée.



MET'MAP, la Météo Aéronautique d'un coup d'oeil ! - Copyright ORBIFLY Décembre 2007 - Disclaimer

ORBIFLY MET'MAP TEAM :

Programmation & Développement : Alexandra Zaïnal
Sur une idée originale de : Baudouin d'Aumeries
Soutien technique & logistique : Manuel Goepfert
Assistance : Marc-Olivier Méhu




SOURCES & CREDITS :

   NOAA